createdAt,value
2023-02-28T00:00:49.758Z,3.22
2023-02-28T00:03:17.579Z,2.25
2023-02-28T00:05:48.253Z,2.90
2023-02-28T00:08:19.418Z,2.40
2023-02-28T00:10:51.369Z,2.33
2023-02-28T00:13:27.715Z,2.30
2023-02-28T00:16:06.923Z,2.33
2023-02-28T00:18:35.142Z,2.22
2023-02-28T00:21:14.387Z,2.33
2023-02-28T00:23:49.274Z,2.28
2023-02-28T00:26:23.477Z,2.13
2023-02-28T00:28:53.037Z,2.45
2023-02-28T00:31:19.725Z,2.15
2023-02-28T00:33:52.066Z,2.30
2023-02-28T00:36:25.515Z,2.15
2023-02-28T00:38:53.042Z,2.42
2023-02-28T00:41:26.590Z,2.67
2023-02-28T00:43:57.710Z,2.42
2023-02-28T00:46:32.131Z,2.60
2023-02-28T00:48:58.914Z,2.50
2023-02-28T00:51:25.505Z,2.50
2023-02-28T00:53:52.352Z,2.67
2023-02-28T00:56:19.290Z,2.53
2023-02-28T00:58:50.311Z,2.47
2023-02-28T01:01:17.208Z,2.40
2023-02-28T01:03:44.736Z,2.65
2023-02-28T01:06:13.164Z,2.80
2023-02-28T01:08:43.447Z,2.05
2023-02-28T01:11:16.942Z,3.30
2023-02-28T01:13:46.079Z,2.22
2023-02-28T01:16:40.325Z,2.17
2023-02-28T01:19:07.328Z,2.33
2023-02-28T01:21:41.791Z,2.53
2023-02-28T01:24:18.493Z,2.42
2023-02-28T01:26:45.441Z,2.10
2023-02-28T01:29:15.634Z,2.38
2023-02-28T01:31:42.358Z,2.03
2023-02-28T01:34:11.184Z,2.47
2023-02-28T01:36:48.702Z,2.50
2023-02-28T01:39:15.588Z,2.40
2023-02-28T01:41:43.352Z,2.30
2023-02-28T01:44:47.402Z,2.47
2023-02-28T01:47:17.337Z,2.08
2023-02-28T01:49:45.253Z,2.17
2023-02-28T01:52:18.163Z,2.85
2023-02-28T01:54:54.956Z,2.53
2023-02-28T01:57:31.516Z,2.67
2023-02-28T02:00:05.111Z,2.63
2023-02-28T02:02:42.134Z,2.58
2023-02-28T02:05:21.764Z,2.65
2023-02-28T02:08:04.099Z,2.20
2023-02-28T02:10:36.709Z,2.40
2023-02-28T02:13:06.069Z,2.58
2023-02-28T02:15:40.613Z,2.20
2023-02-28T02:18:23.850Z,2.38
2023-02-28T02:21:18.875Z,2.67
2023-02-28T02:24:07.552Z,2.53
2023-02-28T02:27:00.480Z,2.38
2023-02-28T02:29:39.654Z,2.70
2023-02-28T02:32:35.923Z,3.40
2023-02-28T02:35:27.760Z,2.58
2023-02-28T02:38:10.178Z,2.78
2023-02-28T02:40:46.266Z,3.03
2023-02-28T02:43:46.032Z,2.45
2023-02-28T02:46:24.863Z,3.00
2023-02-28T02:48:56.186Z,2.95
2023-02-28T02:51:42.786Z,3.15
2023-02-28T02:54:18.877Z,2.67
2023-02-28T02:56:50.699Z,2.90
2023-02-28T02:59:29.032Z,2.83
2023-02-28T03:02:01.998Z,2.53
2023-02-28T03:04:38.113Z,2.75
2023-02-28T03:07:37.679Z,2.60
2023-02-28T03:10:37.064Z,2.78
2023-02-28T03:22:18.643Z,2.75
2023-02-28T03:24:58.412Z,3.00
2023-02-28T03:27:30.055Z,2.60
2023-02-28T03:30:20.050Z,2.95
2023-02-28T03:33:09.293Z,2.90
2023-02-28T03:35:41.948Z,3.28
2023-02-28T03:38:21.790Z,3.23
2023-02-28T03:40:59.102Z,3.17
2023-02-28T03:43:32.877Z,2.65
2023-02-28T03:46:02.601Z,2.80
2023-02-28T03:48:37.968Z,3.00
2023-02-28T03:51:09.043Z,3.60
2023-02-28T03:53:42.718Z,2.83
2023-02-28T03:56:39.724Z,3.70
2023-02-28T03:59:16.363Z,3.20
2023-02-28T04:01:49.506Z,3.22
2023-02-28T04:04:18.097Z,3.17
2023-02-28T04:06:47.760Z,3.25
2023-02-28T04:09:15.198Z,2.72
2023-02-28T04:11:58.750Z,2.95
2023-02-28T04:14:25.607Z,3.50
2023-02-28T04:16:52.725Z,3.28
2023-02-28T04:19:19.961Z,3.15
2023-02-28T04:22:02.144Z,3.03
2023-02-28T04:24:31.364Z,3.80
2023-02-28T04:26:58.986Z,3.45
2023-02-28T04:29:29.408Z,3.78
2023-02-28T04:32:02.683Z,2.92
2023-02-28T04:34:33.168Z,2.67
2023-02-28T04:37:13.306Z,2.92
2023-02-28T04:39:50.528Z,3.25
2023-02-28T04:42:17.671Z,3.10
2023-02-28T04:44:47.405Z,3.55
2023-02-28T04:47:20.348Z,3.10
2023-02-28T04:49:51.374Z,3.05
2023-02-28T04:52:18.309Z,2.95
2023-02-28T04:57:48.613Z,3.50
2023-02-28T05:00:16.965Z,3.17
2023-02-28T05:02:47.878Z,3.10
2023-02-28T05:05:24.872Z,3.47
2023-02-28T05:07:53.818Z,3.40
2023-02-28T05:10:22.730Z,3.78
2023-02-28T05:12:49.884Z,4.05
2023-02-28T05:15:19.564Z,3.45
2023-02-28T05:17:46.522Z,3.10
2023-02-28T05:20:16.841Z,3.10
2023-02-28T05:22:47.815Z,3.65
2023-02-28T05:25:27.014Z,3.88
2023-02-28T05:27:53.965Z,3.83
2023-02-28T05:30:21.568Z,3.92
2023-02-28T05:33:42.029Z,4.07
2023-02-28T05:36:14.464Z,3.17
2023-02-28T05:38:41.378Z,3.83
2023-02-28T05:41:11.746Z,3.65
2023-02-28T05:43:38.861Z,3.90
2023-02-28T05:46:07.627Z,3.83
2023-02-28T05:48:36.071Z,3.60
2023-02-28T05:51:03.949Z,3.70
2023-02-28T05:53:30.971Z,3.50
2023-02-28T05:55:59.669Z,3.97
2023-02-28T05:58:30.995Z,3.85
2023-02-28T06:01:01.565Z,3.28
2023-02-28T06:03:30.571Z,3.67
2023-02-28T06:05:58.104Z,3.00
2023-02-28T06:08:37.041Z,3.63
2023-02-28T06:11:07.825Z,3.67
2023-02-28T06:13:37.780Z,4.80
2023-02-28T06:16:07.311Z,3.53
2023-02-28T06:18:34.145Z,3.53
2023-02-28T06:21:01.106Z,4.07
2023-02-28T06:23:27.787Z,4.57
2023-02-28T06:25:57.947Z,3.97
2023-02-28T06:28:41.369Z,4.38
2023-02-28T06:31:13.052Z,3.83
2023-02-28T06:34:08.182Z,3.90
2023-02-28T06:36:37.158Z,4.60
2023-02-28T06:39:06.981Z,3.78
2023-02-28T06:41:53.214Z,4.07
2023-02-28T06:44:22.114Z,4.60
2023-02-28T06:46:51.388Z,4.57
2023-02-28T07:01:08.131Z,4.47
2023-02-28T07:03:37.838Z,4.03
2023-02-28T07:06:06.521Z,3.45
2023-02-28T07:08:35.570Z,4.20
2023-02-28T07:11:09.188Z,4.68
2023-02-28T07:13:36.591Z,4.32
2023-02-28T07:16:09.192Z,3.97
2023-02-28T07:21:08.451Z,4.28
2023-02-28T07:23:35.989Z,4.13
2023-02-28T07:26:02.920Z,4.07
2023-02-28T07:28:30.053Z,4.47
2023-02-28T07:31:03.290Z,4.40
2023-02-28T07:33:29.957Z,3.65
2023-02-28T07:36:08.444Z,4.80
2023-02-28T07:38:37.770Z,4.10
2023-02-28T07:41:04.891Z,4.30
2023-02-28T07:43:34.271Z,3.97
2023-02-28T07:46:06.430Z,4.10
2023-02-28T07:48:33.619Z,4.05
2023-02-28T07:51:00.782Z,4.07
2023-02-28T07:53:28.668Z,3.92
2023-02-28T07:55:57.088Z,4.80
2023-02-28T07:58:24.787Z,4.68
2023-02-28T08:00:52.045Z,4.57
2023-02-28T08:03:20.764Z,5.00
2023-02-28T08:05:49.255Z,4.95
2023-02-28T08:08:17.226Z,4.40
2023-02-28T08:10:50.701Z,4.60
2023-02-28T08:13:19.363Z,5.72
2023-02-28T08:15:47.846Z,4.68
2023-02-28T08:18:14.573Z,4.82
2023-02-28T08:20:43.392Z,4.68
2023-02-28T08:23:10.115Z,5.63
2023-02-28T08:25:36.984Z,4.18
2023-02-28T08:28:03.965Z,5.30
2023-02-28T08:30:30.585Z,5.32
2023-02-28T08:32:57.541Z,4.63
2023-02-28T08:35:42.504Z,5.20
2023-02-28T08:38:09.222Z,5.10
2023-02-28T08:40:36.297Z,8.75
2023-02-28T08:43:05.609Z,5.95
2023-02-28T08:45:34.805Z,5.45
2023-02-28T08:48:03.626Z,6.35
2023-02-28T08:50:32.650Z,5.82
2023-02-28T08:53:00.170Z,5.07
2023-02-28T08:55:29.325Z,4.80
2023-02-28T08:57:56.409Z,4.30
2023-02-28T09:00:31.110Z,5.28
2023-02-28T09:03:02.400Z,5.00
2023-02-28T09:05:31.723Z,5.72
2023-02-28T09:08:00.954Z,5.55
2023-02-28T09:10:29.240Z,5.72
2023-02-28T09:12:57.294Z,5.28
2023-02-28T09:15:26.560Z,5.30
2023-02-28T09:17:53.198Z,5.25
2023-02-28T09:20:24.944Z,5.55
2023-02-28T09:22:53.812Z,4.33
2023-02-28T09:25:24.006Z,5.65
2023-02-28T09:27:50.885Z,5.78
2023-02-28T09:30:18.039Z,5.05
2023-02-28T09:33:09.502Z,4.80
2023-02-28T09:35:37.736Z,5.43
2023-02-28T09:38:05.095Z,5.57
2023-02-28T09:40:44.649Z,6.00
2023-02-28T09:43:17.913Z,5.28
2023-02-28T09:45:51.935Z,5.85
2023-02-28T09:48:23.749Z,5.40
2023-02-28T09:50:53.835Z,5.63
2023-02-28T09:53:23.139Z,5.55
2023-02-28T09:55:58.578Z,5.80
2023-02-28T09:58:45.349Z,5.85
2023-02-28T10:01:21.978Z,5.10
2023-02-28T10:04:11.195Z,6.03
2023-02-28T10:06:49.396Z,4.95
2023-02-28T10:09:27.153Z,5.50
2023-02-28T10:12:00.676Z,8.27
2023-02-28T10:14:34.172Z,6.68
2023-02-28T10:17:20.556Z,5.65
2023-02-28T10:19:52.487Z,6.65
2023-02-28T10:22:34.692Z,5.47
2023-02-28T10:25:06.807Z,6.45
2023-02-28T10:27:36.977Z,5.47
2023-02-28T10:30:09.779Z,5.18
2023-02-28T10:35:12.105Z,6.70
2023-02-28T10:37:42.928Z,6.25
2023-02-28T10:40:38.400Z,4.97
2023-02-28T10:43:13.267Z,6.07
2023-02-28T10:45:53.426Z,6.18
2023-02-28T10:48:20.462Z,5.13
2023-02-28T10:50:50.240Z,5.10
2023-02-28T10:53:26.404Z,6.05
2023-02-28T10:56:11.363Z,5.60
2023-02-28T10:59:03.882Z,6.35
2023-02-28T11:01:31.971Z,5.72
2023-02-28T11:03:59.511Z,5.68
2023-02-28T11:06:34.664Z,6.68
2023-02-28T11:09:35.158Z,6.35
2023-02-28T11:12:07.478Z,6.18
2023-02-28T11:14:48.389Z,6.82
2023-02-28T11:17:26.597Z,6.25
2023-02-28T11:20:04.525Z,6.53
2023-02-28T11:22:54.070Z,5.93
2023-02-28T11:25:25.299Z,6.25
2023-02-28T11:27:56.294Z,6.65
2023-02-28T11:30:31.037Z,6.53
2023-02-28T11:32:58.206Z,6.10
2023-02-28T11:35:38.428Z,6.55
2023-02-28T11:38:14.660Z,5.95
2023-02-28T11:40:50.873Z,5.57
2023-02-28T11:43:29.567Z,5.97
2023-02-28T11:46:28.869Z,6.85
2023-02-28T11:49:38.756Z,6.20
2023-02-28T11:52:29.575Z,6.57
2023-02-28T11:55:04.676Z,6.47
2023-02-28T11:57:56.288Z,6.50
2023-02-28T12:00:40.274Z,6.43
2023-02-28T12:03:39.602Z,7.05
2023-02-28T12:06:18.440Z,5.88
2023-02-28T12:09:22.688Z,6.72
2023-02-28T12:12:10.849Z,6.75
2023-02-28T12:14:49.335Z,6.60
2023-02-28T12:17:21.699Z,6.68
2023-02-28T12:20:10.291Z,6.10
2023-02-28T12:23:03.166Z,6.22
2023-02-28T12:25:45.108Z,5.88
2023-02-28T12:28:23.505Z,6.97
2023-02-28T12:31:04.805Z,5.68
2023-02-28T12:33:46.496Z,6.05
2023-02-28T12:36:21.495Z,5.85
2023-02-28T12:38:50.894Z,6.07
2023-02-28T12:44:33.131Z,6.07
2023-02-28T12:47:09.324Z,6.25
2023-02-28T12:49:48.278Z,6.35
2023-02-28T12:52:20.313Z,6.70
2023-02-28T12:55:07.066Z,6.25
2023-02-28T12:57:44.477Z,7.10
2023-02-28T13:00:14.841Z,7.28
2023-02-28T13:02:41.788Z,6.65
2023-02-28T13:05:37.657Z,6.47
2023-02-28T13:08:04.700Z,6.03
2023-02-28T13:10:57.587Z,6.20
2023-02-28T13:13:29.878Z,6.32
2023-02-28T13:16:18.065Z,6.93
2023-02-28T13:18:49.448Z,7.40
2023-02-28T13:21:43.349Z,6.50
2023-02-28T13:24:30.207Z,5.95
2023-02-28T13:27:00.136Z,6.53
2023-02-28T13:29:40.739Z,6.20
2023-02-28T13:32:10.263Z,6.28
2023-02-28T13:34:51.738Z,6.40
2023-02-28T13:37:19.586Z,6.68
2023-02-28T13:39:51.387Z,6.38
2023-02-28T13:42:36.377Z,6.97
2023-02-28T13:45:08.091Z,5.93
2023-02-28T13:48:02.993Z,7.05
2023-02-28T13:50:32.098Z,6.70
2023-02-28T13:53:14.117Z,6.43
2023-02-28T13:56:05.635Z,6.93
2023-02-28T13:59:00.330Z,7.13
2023-02-28T14:01:51.406Z,6.65
2023-02-28T14:05:01.251Z,6.95
2023-02-28T14:07:45.403Z,7.28
2023-02-28T14:10:30.732Z,6.80
2023-02-28T14:13:14.404Z,6.90
2023-02-28T14:15:49.425Z,6.30
2023-02-28T14:18:26.636Z,7.22
2023-02-28T14:21:21.600Z,6.72
2023-02-28T14:23:58.487Z,7.47
2023-02-28T14:26:32.560Z,6.80
2023-02-28T14:29:13.278Z,7.00
2023-02-28T14:32:11.605Z,7.85
2023-02-28T14:34:42.434Z,6.35
2023-02-28T14:37:16.873Z,7.22
2023-02-28T14:39:46.441Z,8.00
2023-02-28T14:42:47.261Z,7.80
2023-02-28T14:45:23.009Z,7.57
2023-02-28T14:47:51.573Z,9.50
2023-02-28T14:50:21.750Z,6.78
2023-02-28T14:52:53.450Z,7.72
2023-02-28T14:55:25.127Z,7.10
2023-02-28T14:58:07.441Z,7.22
2023-02-28T15:00:48.171Z,8.10
2023-02-28T15:03:45.184Z,6.63
2023-02-28T15:06:18.506Z,7.03
2023-02-28T15:08:46.104Z,7.03
2023-02-28T15:11:22.711Z,7.45
2023-02-28T15:13:59.476Z,7.10
2023-02-28T15:16:40.566Z,6.57
2023-02-28T15:19:20.267Z,7.03
2023-02-28T15:21:54.542Z,6.80
2023-02-28T15:33:30.750Z,7.38
2023-02-28T15:50:31.947Z,7.10
2023-02-28T15:53:03.495Z,9.07
2023-02-28T15:58:25.445Z,7.65
2023-02-28T16:01:25.725Z,7.47
2023-02-28T16:03:56.872Z,7.90
2023-02-28T16:06:41.908Z,7.13
2023-02-28T16:09:15.985Z,7.28
2023-02-28T16:11:48.712Z,6.97
2023-02-28T16:14:38.925Z,7.25
2023-02-28T16:17:14.742Z,7.03
2023-02-28T16:19:41.503Z,7.47
2023-02-28T16:22:09.926Z,7.82
2023-02-28T16:24:46.313Z,8.02
2023-02-28T16:27:30.599Z,6.82
2023-02-28T16:29:57.520Z,6.93
2023-02-28T16:32:24.655Z,6.60
2023-02-28T16:34:54.613Z,7.68
2023-02-28T16:37:21.524Z,7.90
2023-02-28T16:39:51.956Z,8.02
2023-02-28T16:42:27.224Z,11.20
2023-02-28T16:45:03.000Z,8.93
2023-02-28T16:47:55.538Z,39.55
2023-02-28T16:50:33.931Z,13.27
2023-02-28T16:53:01.860Z,8.20
2023-02-28T16:55:28.888Z,7.22
2023-02-28T16:57:58.964Z,9.68
2023-02-28T17:00:27.822Z,8.15
2023-02-28T17:02:56.862Z,7.55
2023-02-28T17:05:32.269Z,7.65
2023-02-28T17:08:04.055Z,7.43
2023-02-28T17:10:33.100Z,6.82
2023-02-28T17:13:14.263Z,9.25
2023-02-28T17:15:46.703Z,7.63
2023-02-28T17:18:16.736Z,8.23
2023-02-28T17:20:43.767Z,7.50
2023-02-28T17:23:10.624Z,7.72
2023-02-28T17:25:39.573Z,7.63
2023-02-28T17:28:06.376Z,9.02
2023-02-28T17:30:35.456Z,7.60
2023-02-28T17:33:13.273Z,7.57
2023-02-28T17:35:40.604Z,7.65
2023-02-28T17:38:26.442Z,8.27
2023-02-28T17:43:58.557Z,9.15
2023-02-28T17:46:29.190Z,8.70
2023-02-28T17:48:56.894Z,8.27
2023-02-28T17:51:25.021Z,7.78
2023-02-28T17:53:55.658Z,7.45
2023-02-28T17:58:56.669Z,8.25
2023-02-28T18:01:26.356Z,9.93
2023-02-28T18:03:56.921Z,9.37
2023-02-28T18:06:50.138Z,14.48
2023-02-28T18:09:42.344Z,9.40
2023-02-28T18:12:09.116Z,7.27
2023-02-28T18:14:36.752Z,7.55
2023-02-28T18:17:04.471Z,7.93
2023-02-28T18:19:34.577Z,9.35
2023-02-28T18:22:03.136Z,8.07
2023-02-28T18:24:36.947Z,8.20
2023-02-28T18:27:06.761Z,7.90
2023-02-28T18:29:33.728Z,8.40
2023-02-28T18:32:06.450Z,7.90
2023-02-28T18:34:35.347Z,7.53
2023-02-28T18:37:07.061Z,8.23
2023-02-28T18:39:34.523Z,7.07
2023-02-28T18:42:01.393Z,7.60
2023-02-28T18:44:31.699Z,13.70
2023-02-28T18:47:03.297Z,11.30
2023-02-28T18:49:35.039Z,15.25
2023-02-28T18:52:04.863Z,9.25
2023-02-28T18:54:31.966Z,8.43
2023-02-28T18:57:03.969Z,8.43
2023-02-28T18:59:31.642Z,13.00
2023-02-28T19:01:58.436Z,13.07
2023-02-28T19:04:25.347Z,12.35
2023-02-28T19:06:55.173Z,9.32
2023-02-28T19:09:24.369Z,8.30
2023-02-28T19:11:53.975Z,9.40
2023-02-28T19:14:21.285Z,9.05
2023-02-28T19:16:49.398Z,8.73
2023-02-28T19:19:23.039Z,8.18
2023-02-28T19:21:51.474Z,8.57
2023-02-28T19:24:21.105Z,8.23
2023-02-28T19:29:17.476Z,9.25
2023-02-28T19:31:45.273Z,13.45
2023-02-28T19:34:12.033Z,14.02
2023-02-28T19:36:39.856Z,13.75
2023-02-28T19:39:06.578Z,13.63
2023-02-28T19:41:33.284Z,13.88
2023-02-28T19:44:02.332Z,12.38
2023-02-28T19:46:29.129Z,15.07
2023-02-28T19:48:57.840Z,16.40
2023-02-28T19:51:46.683Z,18.67
2023-02-28T19:54:15.540Z,16.55
2023-02-28T19:56:42.141Z,16.95
2023-02-28T19:59:21.065Z,16.25
2023-02-28T20:01:57.013Z,14.20
2023-02-28T20:04:30.234Z,12.38
2023-02-28T20:07:02.454Z,12.07
2023-02-28T20:09:34.045Z,12.65
2023-02-28T20:12:11.700Z,12.93
2023-02-28T20:14:52.148Z,13.52
2023-02-28T20:17:23.417Z,16.92
2023-02-28T20:19:50.800Z,17.25
2023-02-28T20:22:19.788Z,17.80
2023-02-28T20:24:47.584Z,15.90
2023-02-28T20:27:14.958Z,16.25
2023-02-28T20:29:41.746Z,16.52
2023-02-28T20:32:13.170Z,14.82
2023-02-28T20:34:40.779Z,15.20
2023-02-28T20:37:14.081Z,15.45
2023-02-28T20:39:43.048Z,16.45
2023-02-28T20:42:09.684Z,16.00
2023-02-28T20:44:36.775Z,16.88
2023-02-28T20:47:05.672Z,15.65
2023-02-28T20:49:34.945Z,13.98
2023-02-28T20:52:02.494Z,14.82
2023-02-28T20:54:35.334Z,14.20
2023-02-28T20:57:03.189Z,13.32
2023-02-28T20:59:31.140Z,15.32
2023-02-28T21:01:58.816Z,14.52
2023-02-28T21:04:29.984Z,12.00
2023-02-28T21:06:56.647Z,11.63
2023-02-28T21:09:24.649Z,11.48
2023-02-28T21:11:53.846Z,10.60
2023-02-28T21:14:25.339Z,10.98
2023-02-28T21:16:58.236Z,10.63
2023-02-28T21:19:25.421Z,10.63
2023-02-28T21:21:55.225Z,12.73
2023-02-28T21:24:27.596Z,11.60
2023-02-28T21:26:57.221Z,9.70
2023-02-28T21:29:24.052Z,9.65
2023-02-28T21:31:52.525Z,10.75
2023-02-28T21:34:19.444Z,11.52
2023-02-28T21:36:47.143Z,19.23
2023-02-28T21:39:22.600Z,26.77
2023-02-28T21:41:56.061Z,25.48
2023-02-28T21:44:22.881Z,30.45
2023-02-28T21:46:56.056Z,22.35
2023-02-28T21:49:26.237Z,11.73
2023-02-28T21:51:54.081Z,10.60
2023-02-28T21:54:34.230Z,10.07
2023-02-28T21:57:07.053Z,14.13
2023-02-28T21:59:34.029Z,11.40
2023-02-28T22:02:00.920Z,11.23
2023-02-28T22:04:27.821Z,12.77
2023-02-28T22:06:58.916Z,25.33
2023-02-28T22:09:25.635Z,39.55
2023-02-28T22:11:54.731Z,61.38
2023-02-28T22:14:21.926Z,63.20
2023-02-28T22:16:56.028Z,57.85
2023-02-28T22:19:29.266Z,75.07
2023-02-28T22:21:56.050Z,63.80
2023-02-28T22:24:28.476Z,35.05
2023-02-28T22:26:55.542Z,27.75
2023-02-28T22:29:25.383Z,26.63
2023-02-28T22:31:52.989Z,14.55
2023-02-28T22:34:20.752Z,13.35
2023-02-28T22:36:50.334Z,13.13
2023-02-28T22:39:20.533Z,13.55
2023-02-28T22:41:48.022Z,16.95
2023-02-28T22:44:16.474Z,19.45
2023-02-28T22:46:45.604Z,17.17
2023-02-28T22:49:12.287Z,14.48
2023-02-28T22:51:39.232Z,15.38
2023-02-28T22:54:11.429Z,12.40
2023-02-28T22:56:38.262Z,12.50
2023-02-28T22:59:07.521Z,12.82
2023-02-28T23:01:34.483Z,11.13
2023-02-28T23:04:02.320Z,13.10
2023-02-28T23:06:30.680Z,11.40
2023-02-28T23:09:01.388Z,13.55
2023-02-28T23:11:32.215Z,10.77
2023-02-28T23:14:01.588Z,11.90
2023-02-28T23:16:40.832Z,12.05
2023-02-28T23:19:17.277Z,9.68
2023-02-28T23:21:46.337Z,11.95
2023-02-28T23:24:15.678Z,9.52
2023-02-28T23:26:48.389Z,10.00
2023-02-28T23:29:16.951Z,9.68
2023-02-28T23:31:47.400Z,11.77
2023-02-28T23:34:16.496Z,10.85
2023-02-28T23:36:45.487Z,10.80
2023-02-28T23:39:23.311Z,9.93
2023-02-28T23:41:55.611Z,9.35
2023-02-28T23:44:25.081Z,10.88
2023-02-28T23:46:54.043Z,7.93
2023-02-28T23:49:23.906Z,9.07
2023-02-28T23:51:54.790Z,8.85
2023-02-28T23:54:21.690Z,9.30
2023-02-28T23:56:48.514Z,8.18
2023-02-28T23:59:15.306Z,8.98
